Wetterdaten: Woche 02.11.15 - 08.11.15 (KW45)
Datum Zeit Temp. I. Temp. A. Feuchte I. Feuchte A. Luftdruck Regen Wind Richtung Sonnenschein UV Solar Taupunkt Windchill Windben
02.11.2015 00:00 23,3 C 0,1 C 51 % 92 % 1032,0 hPa 0,0 l/m 0,2 km/h (0 Bft) N-NW 0,00 h 0,0 UV-I 0 W/m -1,1 C 0,1 C 0,7 km/h (0 Bft)
02.11.2015 01:00 23,1 C -0,3 C 51 % 92 % 1031,9 hPa 0,0 l/m 1,6 km/h (1 Bft) N-NW 0,00 h 0,0 UV-I 0 W/m -1,4 C -0,3 C 2,4 km/h (1 Bft)
02.11.2015 02:00 23,1 C -0,6 C 51 % 92 % 1031,7 hPa 0,0 l/m 1,5 km/h (1 Bft) N-NW 0,00 h 0,0 UV-I 0 W/m -1,7 C -0,6 C 2,8 km/h (1 Bft)
02.11.2015 03:00 23,0 C -1,1 C 51 % 93 % 1031,5 hPa 0,0 l/m 1,5 km/h (1 Bft) N-NW 0,00 h 0,0 UV-I 0 W/m -2,1 C -1,1 C 2,5 km/h (1 Bft)
02.11.2015 04:00 22,9 C -1,6 C 50 % 92 % 1031,2 hPa 0,0 l/m 0,2 km/h (0 Bft) N-NW 0,00 h 0,0 UV-I 0 W/m -2,7 C -1,6 C 0,7 km/h (0 Bft)
02.11.2015 05:00 22,9 C -2,2 C 50 % 92 % 1031,1 hPa 0,0 l/m 0,9 km/h (0 Bft) N-NW 0,00 h 0,0 UV-I 0 W/m -3,3 C -2,2 C 1,7 km/h (1 Bft)
02.11.2015 06:00 22,9 C -2,7 C 50 % 92 % 1031,0 hPa 0,0 l/m 1,9 km/h (1 Bft) N-NW 0,00 h 0,0 UV-I 0 W/m -3,8 C -2,7 C 3,1 km/h (1 Bft)
02.11.2015 07:00 22,9 C -2,8 C 50 % 93 % 1031,3 hPa 0,0 l/m 0,1 km/h (0 Bft) N-NW 0,00 h 0,0 UV-I 17 W/m -3,7 C -2,8 C 0,5 km/h (0 Bft)
02.11.2015 08:00 23,1 C -0,3 C 52 % 93 % 1031,5 hPa 0,0 l/m 0,3 km/h (0 Bft) O 0,57 h 0,5 UV-I 138 W/m -1,3 C -0,3 C 2,3 km/h (1 Bft)
02.11.2015 09:00 23,3 C 4,4 C 50 % 83 % 1031,3 hPa 0,0 l/m 2,8 km/h (1 Bft) O-NO 0,60 h 0,8 UV-I 197 W/m 1,8 C 4,3 C 7,4 km/h (2 Bft)
02.11.2015 10:00 23,3 C 5,9 C 49 % 76 % 1031,1 hPa 0,0 l/m 1,8 km/h (1 Bft) O-NO 0,48 h 1,1 UV-I 188 W/m 2,1 C 5,8 C 4,5 km/h (1 Bft)
02.11.2015 11:00 22,4 C 7,4 C 43 % 72 % 1030,7 hPa 0,0 l/m 0,1 km/h (0 Bft) O-NO 0,52 h 1,2 UV-I 213 W/m 2,6 C 7,4 C 0,6 km/h (0 Bft)
02.11.2015 12:00 22,7 C 7,7 C 45 % 69 % 1030,4 hPa 0,0 l/m 0,7 km/h (0 Bft) O-NO 0,67 h 1,4 UV-I 292 W/m 2,3 C 7,6 C 2,0 km/h (1 Bft)
02.11.2015 13:00 23,0 C 10,7 C 46 % 61 % 1029,7 hPa 0,0 l/m 0,6 km/h (0 Bft) O-NO 0,80 h 1,2 UV-I 304 W/m 3,4 C 10,7 C 2,5 km/h (1 Bft)
02.11.2015 14:00 23,3 C 10,3 C 44 % 62 % 1029,3 hPa 0,0 l/m 8,3 km/h (2 Bft) O-NO 0,92 h 0,8 UV-I 283 W/m 3,4 C 8,7 C 14,1 km/h (3 Bft)
02.11.2015 15:00 23,7 C 9,9 C 44 % 61 % 1029,1 hPa 0,0 l/m 3,9 km/h (1 Bft) O-NO 0,52 h 0,5 UV-I 151 W/m 2,8 C 9,5 C 9,4 km/h (2 Bft)
02.11.2015 16:00 23,5 C 8,5 C 44 % 60 % 1029,1 hPa 0,0 l/m 2,4 km/h (1 Bft) O 0,00 h 0,0 UV-I 24 W/m 1,2 C 8,4 C 6,6 km/h (2 Bft)
02.11.2015 17:00 23,4 C 6,5 C 45 % 68 % 1029,3 hPa 0,0 l/m 1,7 km/h (1 Bft) O 0,00 h 0,0 UV-I 0 W/m 1,0 C 6,5 C 4,1 km/h (1 Bft)
02.11.2015 18:00 23,8 C 4,4 C 48 % 74 % 1029,3 hPa 0,0 l/m 1,4 km/h (1 Bft) O 0,00 h 0,0 UV-I 0 W/m 0,2 C 4,4 C 3,8 km/h (1 Bft)
02.11.2015 19:00 24,0 C 1,6 C 50 % 81 % 1029,2 hPa 0,0 l/m 1,4 km/h (1 Bft) O 0,00 h 0,0 UV-I 0 W/m -1,3 C 1,6 C 3,3 km/h (1 Bft)
02.11.2015 20:00 23,9 C 0,1 C 50 % 85 % 1029,0 hPa 0,0 l/m 0,7 km/h (0 Bft) O 0,00 h 0,0 UV-I 0 W/m -2,1 C 0,1 C 2,1 km/h (1 Bft)
02.11.2015 21:00 24,0 C -0,7 C 49 % 87 % 1029,1 hPa 0,0 l/m 0,3 km/h (0 Bft) O-NO 0,00 h 0,0 UV-I 0 W/m -2,5 C -0,7 C 1,0 km/h (0 Bft)
02.11.2015 22:00 23,7 C -1,4 C 50 % 88 % 1028,9 hPa 0,0 l/m 1,3 km/h (1 Bft) N 0,00 h 0,0 UV-I 0 W/m -3,1 C -1,4 C 2,2 km/h (1 Bft)
02.11.2015 23:00 23,3 C -1,7 C 50 % 90 % 1028,7 hPa 0,0 l/m 0,7 km/h (0 Bft) N 0,00 h 0,0 UV-I 0 W/m -3,1 C -1,7 C 1,2 km/h (1 Bft)
03.11.2015 00:00 23,4 C -2,2 C 50 % 91 % 1028,5 hPa 0,0 l/m 1,6 km/h (1 Bft) N-NW 0,00 h 0,0 UV-I 0 W/m -3,6 C -2,2 C 2,6 km/h (1 Bft)
03.11.2015 01:00 23,4 C -2,6 C 50 % 91 % 1028,1 hPa 0,0 l/m 1,7 km/h (1 Bft) N-NW 0,00 h 0,0 UV-I 0 W/m -3,8 C -2,6 C 2,6 km/h (1 Bft)
03.11.2015 02:00 23,4 C -3,1 C 51 % 91 % 1027,5 hPa 0,0 l/m 1,2 km/h (1 Bft) N-NW 0,00 h 0,0 UV-I 0 W/m -4,3 C -3,1 C 1,8 km/h (1 Bft)
03.11.2015 03:00 23,4 C -3,2 C 52 % 92 % 1026,7 hPa 0,0 l/m 2,2 km/h (1 Bft) NW 0,00 h 0,0 UV-I 0 W/m -4,3 C -3,2 C 3,1 km/h (1 Bft)
03.11.2015 04:00 23,1 C -3,4 C 52 % 92 % 1026,2 hPa 0,0 l/m 1,8 km/h (1 Bft) NW 0,00 h 0,0 UV-I 0 W/m -4,5 C -3,4 C 3,1 km/h (1 Bft)
03.11.2015 05:00 23,0 C -3,4 C 52 % 93 % 1026,2 hPa 0,0 l/m 2,1 km/h (1 Bft) NW 0,00 h 0,0 UV-I 0 W/m -4,4 C -3,4 C 3,2 km/h (1 Bft)
03.11.2015 06:00 23,0 C -3,8 C 51 % 93 % 1025,9 hPa 0,0 l/m 0,9 km/h (0 Bft) N 0,00 h 0,0 UV-I 0 W/m -4,8 C -3,8 C 1,5 km/h (1 Bft)
03.11.2015 07:00 22,9 C -3,7 C 51 % 93 % 1026,3 hPa 0,0 l/m 1,7 km/h (1 Bft) N-NW 0,00 h 0,0 UV-I 19 W/m -4,6 C -3,7 C 2,6 km/h (1 Bft)
03.11.2015 08:00 23,2 C -0,9 C 52 % 93 % 1026,3 hPa 0,0 l/m 0,1 km/h (0 Bft) N-NW 0,52 h 0,5 UV-I 157 W/m -1,9 C -0,9 C 0,3 km/h (0 Bft)
03.11.2015 09:00 23,5 C 4,5 C 52 % 85 % 1025,5 hPa 0,0 l/m 1,7 km/h (1 Bft) O-NO 1,00 h 0,9 UV-I 305 W/m 2,1 C 4,3 C 4,6 km/h (1 Bft)
03.11.2015 10:00 23,7 C 8,4 C 52 % 72 % 1024,8 hPa 0,0 l/m 4,4 km/h (1 Bft) O-NO 1,00 h 1,3 UV-I 395 W/m 3,7 C 7,9 C 8,2 km/h (2 Bft)
03.11.2015 11:00 23,5 C 10,3 C 51 % 66 % 1024,1 hPa 0,0 l/m 1,7 km/h (1 Bft) O-NO 1,00 h 1,6 UV-I 431 W/m 4,2 C 10,2 C 4,2 km/h (1 Bft)
03.11.2015 12:00 23,5 C 11,7 C 51 % 61 % 1023,3 hPa 0,0 l/m 0,0 km/h (0 Bft) NO 1,00 h 1,5 UV-I 425 W/m 4,4 C 11,7 C 0,1 km/h (0 Bft)
03.11.2015 13:00 23,4 C 12,7 C 48 % 59 % 1022,7 hPa 0,0 l/m 0,4 km/h (0 Bft) O-NO 1,00 h 1,2 UV-I 371 W/m 4,8 C 12,7 C 1,9 km/h (1 Bft)
03.11.2015 14:00 22,6 C 12,7 C 39 % 57 % 1022,6 hPa 0,0 l/m 0,3 km/h (0 Bft) O-NO 1,00 h 0,8 UV-I 272 W/m 4,5 C 12,7 C 1,4 km/h (1 Bft)
03.11.2015 15:00 21,7 C 11,6 C 37 % 58 % 1022,3 hPa 0,0 l/m 2,2 km/h (1 Bft) O-NO 0,32 h 0,5 UV-I 111 W/m 3,5 C 11,5 C 6,7 km/h (2 Bft)
03.11.2015 16:00 22,1 C 9,6 C 41 % 66 % 1022,1 hPa 0,0 l/m 3,6 km/h (1 Bft) O-NO 0,00 h 0,0 UV-I 12 W/m 3,4 C 9,2 C 7,0 km/h (2 Bft)
03.11.2015 17:00 22,8 C 7,6 C 43 % 72 % 1022,1 hPa 0,0 l/m 0,6 km/h (0 Bft) O-NO 0,00 h 0,0 UV-I 0 W/m 2,8 C 7,6 C 2,0 km/h (1 Bft)
03.11.2015 18:00 23,6 C 6,1 C 45 % 77 % 1022,1 hPa 0,0 l/m 2,2 km/h (1 Bft) O-NO 0,00 h 0,0 UV-I 0 W/m 2,4 C 6,1 C 5,4 km/h (1 Bft)
03.11.2015 19:00 23,9 C 5,0 C 45 % 80 % 1022,0 hPa 0,0 l/m 3,2 km/h (1 Bft) O 0,00 h 0,0 UV-I 0 W/m 1,9 C 5,0 C 7,6 km/h (2 Bft)
03.11.2015 20:00 24,1 C 4,5 C 46 % 81 % 1022,5 hPa 0,0 l/m 1,8 km/h (1 Bft) O-NO 0,00 h 0,0 UV-I 0 W/m 1,4 C 4,5 C 4,1 km/h (1 Bft)
03.11.2015 21:00 24,1 C 2,7 C 47 % 81 % 1022,6 hPa 0,0 l/m 0,7 km/h (0 Bft) O 0,00 h 0,0 UV-I 0 W/m -0,2 C 2,7 C 1,6 km/h (1 Bft)
03.11.2015 22:00 23,8 C 0,9 C 48 % 87 % 1022,4 hPa 0,0 l/m 0,6 km/h (0 Bft) S-SW 0,00 h 0,0 UV-I 0 W/m -1,0 C 0,9 C 1,0 km/h (0 Bft)
03.11.2015 23:00 23,5 C 0,1 C 48 % 89 % 1022,5 hPa 0,0 l/m 0,0 km/h (0 Bft) N 0,00 h 0,0 UV-I 0 W/m -1,5 C 0,1 C 0,2 km/h (0 Bft)
04.11.2015 00:00 23,3 C -0,4 C 48 % 90 % 1023,0 hPa 0,0 l/m 0,2 km/h (0 Bft) N-NW 0,00 h 0,0 UV-I 0 W/m -1,9 C -0,4 C 0,6 km/h (0 Bft)
04.11.2015 01:00 23,3 C -0,9 C 49 % 91 % 1023,3 hPa 0,0 l/m 0,2 km/h (0 Bft) N 0,00 h 0,0 UV-I 0 W/m -2,2 C -0,9 C 0,5 km/h (0 Bft)
04.11.2015 02:00 23,3 C -1,3 C 51 % 92 % 1023,4 hPa 0,0 l/m 0,1 km/h (0 Bft) N-NW 0,00 h 0,0 UV-I 0 W/m -2,4 C -1,3 C 0,1 km/h (0 Bft)
04.11.2015 03:00 23,3 C -1,5 C 51 % 92 % 1023,5 hPa 0,0 l/m 0,1 km/h (0 Bft) N-NO 0,00 h 0,0 UV-I 0 W/m -2,7 C -1,5 C 0,3 km/h (0 Bft)
04.11.2015 04:00 23,2 C -1,8 C 51 % 92 % 1023,9 hPa 0,0 l/m 0,4 km/h (0 Bft) O 0,00 h 0,0 UV-I 0 W/m -2,9 C -1,8 C 0,9 km/h (0 Bft)
04.11.2015 05:00 23,3 C -1,8 C 51 % 93 % 1023,8 hPa 0,0 l/m 1,4 km/h (1 Bft) O-NO 0,00 h 0,0 UV-I 0 W/m -2,8 C -1,9 C 2,3 km/h (1 Bft)
04.11.2015 06:00 23,5 C -1,5 C 51 % 94 % 1023,7 hPa 0,0 l/m 0,0 km/h (0 Bft) N 0,00 h 0,0 UV-I 0 W/m -2,4 C -1,5 C 0,1 km/h (0 Bft)
04.11.2015 07:00 23,7 C -0,8 C 51 % 94 % 1023,8 hPa 0,0 l/m 0,0 km/h (0 Bft) N 0,00 h 0,0 UV-I 13 W/m -1,6 C -0,8 C 0,0 km/h (0 Bft)
04.11.2015 08:00 23,8 C 0,5 C 51 % 95 % 1024,1 hPa 0,0 l/m 0,0 km/h (0 Bft) N 0,00 h 0,0 UV-I 49 W/m -0,2 C 0,5 C 0,0 km/h (0 Bft)
04.11.2015 09:00 23,9 C 2,4 C 51 % 95 % 1024,2 hPa 0,0 l/m 0,0 km/h (0 Bft) N 0,00 h 0,5 UV-I 94 W/m 1,7 C 2,4 C 0,0 km/h (0 Bft)
04.11.2015 10:00 23,8 C 5,0 C 49 % 88 % 1024,1 hPa 0,0 l/m 0,0 km/h (0 Bft) N 0,50 h 0,9 UV-I 243 W/m 3,2 C 5,0 C 0,2 km/h (0 Bft)
04.11.2015 11:00 23,8 C 7,5 C 48 % 80 % 1024,0 hPa 0,0 l/m 0,0 km/h (0 Bft) N 0,55 h 1,0 UV-I 180 W/m 4,3 C 7,5 C 0,0 km/h (0 Bft)
04.11.2015 12:00 23,9 C 8,1 C 48 % 79 % 1023,6 hPa 0,0 l/m 0,1 km/h (0 Bft) S-SO 0,00 h 0,7 UV-I 117 W/m 4,7 C 8,1 C 0,4 km/h (0 Bft)
04.11.2015 13:00 24,0 C 8,8 C 49 % 78 % 1023,3 hPa 0,0 l/m 0,0 km/h (0 Bft) N 0,00 h 0,6 UV-I 100 W/m 5,1 C 8,8 C 0,0 km/h (0 Bft)
04.11.2015 14:00 24,2 C 9,2 C 49 % 78 % 1023,1 hPa 0,0 l/m 0,0 km/h (0 Bft) N 0,00 h 0,5 UV-I 98 W/m 5,6 C 9,2 C 0,0 km/h (0 Bft)
04.11.2015 15:00 24,2 C 9,5 C 50 % 78 % 1023,2 hPa 0,0 l/m 0,0 km/h (0 Bft) N 0,00 h 0,0 UV-I 45 W/m 5,9 C 9,5 C 0,0 km/h (0 Bft)
04.11.2015 16:00 24,3 C 9,0 C 51 % 80 % 1023,3 hPa 0,0 l/m 0,0 km/h (0 Bft) N 0,00 h 0,0 UV-I 10 W/m 5,7 C 9,0 C 0,0 km/h (0 Bft)
04.11.2015 17:00 24,2 C 8,3 C 50 % 82 % 1023,2 hPa 0,0 l/m 0,0 km/h (0 Bft) N 0,00 h 0,0 UV-I 0 W/m 5,4 C 8,3 C 0,0 km/h (0 Bft)
04.11.2015 18:00 24,6 C 7,7 C 53 % 85 % 1023,5 hPa 0,0 l/m 0,0 km/h (0 Bft) N 0,00 h 0,0 UV-I 0 W/m 5,3 C 7,7 C 0,0 km/h (0 Bft)
04.11.2015 19:00 24,3 C 7,3 C 49 % 86 % 1023,4 hPa 0,0 l/m 0,0 km/h (0 Bft) N 0,00 h 0,0 UV-I 0 W/m 5,1 C 7,3 C 0,0 km/h (0 Bft)
04.11.2015 20:00 24,5 C 6,8 C 49 % 88 % 1023,4 hPa 0,0 l/m 0,0 km/h (0 Bft) N 0,00 h 0,0 UV-I 0 W/m 5,0 C 6,8 C 0,0 km/h (0 Bft)
04.11.2015 21:00 24,4 C 6,6 C 51 % 90 % 1023,5 hPa 0,0 l/m 0,0 km/h (0 Bft) N 0,00 h 0,0 UV-I 0 W/m 5,1 C 6,6 C 0,1 km/h (0 Bft)
04.11.2015 22:00 24,0 C 6,4 C 51 % 91 % 1023,6 hPa 0,0 l/m 0,0 km/h (0 Bft) N 0,00 h 0,0 UV-I 0 W/m 5,0 C 6,4 C 0,0 km/h (0 Bft)
04.11.2015 23:00 23,8 C 6,4 C 51 % 92 % 1023,4 hPa 0,0 l/m 0,0 km/h (0 Bft) N 0,00 h 0,0 UV-I 0 W/m 5,1 C 6,4 C 0,0 km/h (0 Bft)
05.11.2015 00:00 23,7 C 6,1 C 51 % 92 % 1023,2 hPa 0,0 l/m 0,0 km/h (0 Bft) N 0,00 h 0,0 UV-I 0 W/m 4,9 C 6,1 C 0,0 km/h (0 Bft)
05.11.2015 01:00 23,6 C 5,9 C 51 % 92 % 1023,3 hPa 0,0 l/m 0,0 km/h (0 Bft) N 0,00 h 0,0 UV-I 0 W/m 4,7 C 5,9 C 0,0 km/h (0 Bft)
05.11.2015 02:00 23,5 C 5,7 C 51 % 93 % 1023,4 hPa 0,0 l/m 0,0 km/h (0 Bft) N 0,00 h 0,0 UV-I 0 W/m 4,7 C 5,7 C 0,0 km/h (0 Bft)
05.11.2015 03:00 23,4 C 5,7 C 51 % 93 % 1023,4 hPa 0,0 l/m 0,0 km/h (0 Bft) N 0,00 h 0,0 UV-I 0 W/m 4,7 C 5,7 C 0,0 km/h (0 Bft)
05.11.2015 04:00 23,4 C 5,6 C 51 % 93 % 1023,4 hPa 0,0 l/m 0,0 km/h (0 Bft) N 0,00 h 0,0 UV-I 0 W/m 4,6 C 5,6 C 0,0 km/h (0 Bft)
05.11.2015 05:00 23,4 C 5,4 C 51 % 93 % 1023,4 hPa 0,0 l/m 0,0 km/h (0 Bft) N 0,00 h 0,0 UV-I 0 W/m 4,4 C 5,4 C 0,0 km/h (0 Bft)
05.11.2015 06:00 23,3 C 5,2 C 51 % 93 % 1023,5 hPa 0,0 l/m 0,0 km/h (0 Bft) N 0,00 h 0,0 UV-I 0 W/m 4,1 C 5,2 C 0,0 km/h (0 Bft)
05.11.2015 07:00 23,6 C 4,9 C 52 % 93 % 1023,9 hPa 0,0 l/m 0,0 km/h (0 Bft) N 0,00 h 0,0 UV-I 27 W/m 3,9 C 4,9 C 0,0 km/h (0 Bft)
05.11.2015 08:00 23,8 C 6,6 C 53 % 93 % 1024,1 hPa 0,0 l/m 0,0 km/h (0 Bft) N 0,18 h 0,5 UV-I 112 W/m 5,5 C 6,6 C 0,0 km/h (0 Bft)
05.11.2015 09:00 23,7 C 9,9 C 52 % 85 % 1024,0 hPa 0,0 l/m 0,0 km/h (0 Bft) N 0,72 h 0,8 UV-I 219 W/m 7,5 C 9,9 C 0,0 km/h (0 Bft)
05.11.2015 10:00 23,7 C 13,5 C 50 % 74 % 1023,9 hPa 0,0 l/m 0,0 km/h (0 Bft) N 1,00 h 1,3 UV-I 384 W/m 9,0 C 13,5 C 0,0 km/h (0 Bft)
05.11.2015 11:00 23,8 C 16,6 C 52 % 64 % 1023,4 hPa 0,0 l/m 0,1 km/h (0 Bft) SO 1,00 h 1,4 UV-I 344 W/m 9,7 C 16,6 C 0,4 km/h (0 Bft)
05.11.2015 12:00 24,0 C 17,8 C 53 % 58 % 1022,8 hPa 0,0 l/m 0,7 km/h (0 Bft) S 1,00 h 1,4 UV-I 404 W/m 9,5 C 17,8 C 2,0 km/h (1 Bft)
05.11.2015 13:00 23,9 C 18,3 C 52 % 57 % 1022,4 hPa 0,0 l/m 0,9 km/h (0 Bft) NW 0,97 h 1,1 UV-I 342 W/m 9,5 C 18,3 C 2,3 km/h (1 Bft)
05.11.2015 14:00 23,7 C 17,8 C 49 % 58 % 1022,2 hPa 0,0 l/m 0,2 km/h (0 Bft) N 0,72 h 0,6 UV-I 185 W/m 9,5 C 17,8 C 0,6 km/h (0 Bft)
05.11.2015 15:00 23,7 C 17,5 C 46 % 58 % 1022,1 hPa 0,0 l/m 0,3 km/h (0 Bft) N-NO 0,35 h 0,5 UV-I 120 W/m 9,3 C 17,5 C 1,0 km/h (0 Bft)
05.11.2015 16:00 23,6 C 15,9 C 45 % 63 % 1022,2 hPa 0,0 l/m 0,0 km/h (0 Bft) N 0,00 h 0,0 UV-I 19 W/m 9,0 C 15,9 C 0,0 km/h (0 Bft)
05.11.2015 17:00 23,9 C 13,3 C 48 % 74 % 1022,5 hPa 0,0 l/m 0,0 km/h (0 Bft) N 0,00 h 0,0 UV-I 0 W/m 8,7 C 13,3 C 0,0 km/h (0 Bft)
05.11.2015 18:00 24,2 C 10,6 C 50 % 82 % 1022,8 hPa 0,0 l/m 0,0 km/h (0 Bft) N 0,00 h 0,0 UV-I 0 W/m 7,6 C 10,6 C 0,0 km/h (0 Bft)
05.11.2015 19:00 24,4 C 8,9 C 51 % 86 % 1022,7 hPa 0,0 l/m 0,0 km/h (0 Bft) N 0,00 h 0,0 UV-I 0 W/m 6,7 C 8,9 C 0,0 km/h (0 Bft)
05.11.2015 20:00 24,3 C 7,5 C 51 % 87 % 1022,7 hPa 0,0 l/m 0,0 km/h (0 Bft) N 0,00 h 0,0 UV-I 0 W/m 5,6 C 7,5 C 0,0 km/h (0 Bft)
05.11.2015 21:00 24,4 C 6,3 C 52 % 89 % 1022,9 hPa 0,0 l/m 0,0 km/h (0 Bft) N 0,00 h 0,0 UV-I 0 W/m 4,6 C 6,3 C 0,0 km/h (0 Bft)
05.11.2015 22:00 24,2 C 5,2 C 51 % 90 % 1022,9 hPa 0,0 l/m 0,0 km/h (0 Bft) N 0,00 h 0,0 UV-I 0 W/m 3,7 C 5,2 C 0,0 km/h (0 Bft)
05.11.2015 23:00 24,1 C 4,5 C 52 % 91 % 1022,9 hPa 0,0 l/m 0,0 km/h (0 Bft) N 0,00 h 0,0 UV-I 0 W/m 3,2 C 4,5 C 0,0 km/h (0 Bft)
06.11.2015 00:00 24,1 C 3,8 C 53 % 92 % 1023,2 hPa 0,0 l/m 0,0 km/h (0 Bft) N 0,00 h 0,0 UV-I 0 W/m 2,5 C 3,8 C 0,0 km/h (0 Bft)
06.11.2015 01:00 24,1 C 3,2 C 54 % 92 % 1023,5 hPa 0,0 l/m 0,0 km/h (0 Bft) N 0,00 h 0,0 UV-I 0 W/m 2,1 C 3,2 C 0,0 km/h (0 Bft)
06.11.2015 02:00 24,0 C 2,8 C 54 % 93 % 1023,7 hPa 0,0 l/m 0,0 km/h (0 Bft) N 0,00 h 0,0 UV-I 0 W/m 1,8 C 2,8 C 0,0 km/h (0 Bft)
06.11.2015 03:00 23,9 C 2,7 C 55 % 93 % 1023,6 hPa 0,0 l/m 0,0 km/h (0 Bft) N 0,00 h 0,0 UV-I 0 W/m 1,7 C 2,7 C 0,0 km/h (0 Bft)
06.11.2015 04:00 23,8 C 2,9 C 54 % 94 % 1023,7 hPa 0,0 l/m 0,0 km/h (0 Bft) N 0,00 h 0,0 UV-I 0 W/m 2,0 C 2,9 C 0,0 km/h (0 Bft)
06.11.2015 05:00 23,7 C 2,9 C 54 % 94 % 1024,0 hPa 0,0 l/m 0,0 km/h (0 Bft) N 0,00 h 0,0 UV-I 0 W/m 2,1 C 2,9 C 0,0 km/h (0 Bft)
06.11.2015 06:00 23,6 C 3,1 C 54 % 95 % 1024,2 hPa 0,0 l/m 0,0 km/h (0 Bft) N 0,00 h 0,0 UV-I 0 W/m 2,4 C 3,1 C 0,0 km/h (0 Bft)
06.11.2015 07:00 23,7 C 3,1 C 54 % 95 % 1024,2 hPa 0,0 l/m 0,0 km/h (0 Bft) N 0,00 h 0,0 UV-I 17 W/m 2,4 C 3,1 C 0,0 km/h (0 Bft)
06.11.2015 08:00 23,9 C 4,2 C 54 % 95 % 1024,5 hPa 0,0 l/m 0,0 km/h (0 Bft) N 0,00 h 0,0 UV-I 66 W/m 3,5 C 4,2 C 0,0 km/h (0 Bft)
06.11.2015 09:00 24,0 C 7,1 C 54 % 93 % 1024,6 hPa 0,0 l/m 0,3 km/h (0 Bft) NW 0,13 h 0,6 UV-I 118 W/m 6,1 C 7,1 C 1,0 km/h (0 Bft)
06.11.2015 10:00 24,0 C 9,6 C 54 % 89 % 1024,7 hPa 0,0 l/m 0,2 km/h (0 Bft) W-NW 0,67 h 0,8 UV-I 167 W/m 7,9 C 9,6 C 0,6 km/h (0 Bft)
06.11.2015 11:00 24,0 C 12,2 C 54 % 84 % 1024,8 hPa 0,0 l/m 3,9 km/h (1 Bft) W-SW 0,57 h 0,9 UV-I 155 W/m 9,5 C 12,1 C 7,7 km/h (2 Bft)
06.11.2015 12:00 24,1 C 13,3 C 54 % 79 % 1024,3 hPa 0,0 l/m 2,0 km/h (1 Bft) W-SW 0,93 h 1,2 UV-I 282 W/m 9,8 C 13,3 C 5,2 km/h (1 Bft)
06.11.2015 13:00 23,8 C 15,2 C 51 % 72 % 1023,9 hPa 0,0 l/m 2,9 km/h (1 Bft) S 1,00 h 1,1 UV-I 348 W/m 10,1 C 15,1 C 6,8 km/h (2 Bft)
06.11.2015 14:00 23,4 C 14,8 C 48 % 73 % 1023,9 hPa 0,0 l/m 2,9 km/h (1 Bft) S 0,63 h 0,7 UV-I 198 W/m 10,0 C 14,8 C 6,5 km/h (2 Bft)
06.11.2015 15:00 23,6 C 14,0 C 50 % 76 % 1024,3 hPa 0,0 l/m 0,2 km/h (0 Bft) S 0,00 h 0,0 UV-I 29 W/m 9,9 C 14,0 C 1,1 km/h (1 Bft)
06.11.2015 16:00 23,6 C 13,6 C 50 % 78 % 1024,4 hPa 0,0 l/m 0,0 km/h (0 Bft) N 0,00 h 0,0 UV-I 10 W/m 9,8 C 13,6 C 0,1 km/h (0 Bft)
06.11.2015 17:00 23,6 C 12,8 C 51 % 81 % 1024,6 hPa 0,0 l/m 0,0 km/h (0 Bft) N 0,00 h 0,0 UV-I 0 W/m 9,6 C 12,8 C 0,0 km/h (0 Bft)
06.11.2015 18:00 23,9 C 11,9 C 52 % 84 % 1025,1 hPa 0,0 l/m 0,1 km/h (0 Bft) W-SW 0,00 h 0,0 UV-I 0 W/m 9,3 C 11,9 C 0,2 km/h (0 Bft)
06.11.2015 19:00 24,1 C 11,7 C 53 % 87 % 1025,3 hPa 0,0 l/m 0,8 km/h (0 Bft) S 0,00 h 0,0 UV-I 0 W/m 9,6 C 11,7 C 2,5 km/h (1 Bft)
06.11.2015 20:00 24,3 C 11,6 C 53 % 89 % 1025,3 hPa 0,0 l/m 0,1 km/h (0 Bft) S-SW 0,00 h 0,0 UV-I 0 W/m 9,9 C 11,6 C 0,3 km/h (0 Bft)
06.11.2015 21:00 24,3 C 11,4 C 53 % 90 % 1025,3 hPa 0,0 l/m 0,0 km/h (0 Bft) N 0,00 h 0,0 UV-I 0 W/m 9,8 C 11,4 C 0,0 km/h (0 Bft)
06.11.2015 22:00 24,3 C 11,0 C 53 % 91 % 1025,2 hPa 0,0 l/m 0,1 km/h (0 Bft) S 0,00 h 0,0 UV-I 0 W/m 9,5 C 11,0 C 0,3 km/h (0 Bft)
06.11.2015 23:00 23,9 C 10,5 C 54 % 90 % 1025,1 hPa 0,0 l/m 0,1 km/h (0 Bft) S-SW 0,00 h 0,0 UV-I 0 W/m 9,0 C 10,5 C 0,4 km/h (0 Bft)
07.11.2015 00:00 23,8 C 10,3 C 54 % 92 % 1025,0 hPa 0,0 l/m 0,8 km/h (0 Bft) SW 0,00 h 0,0 UV-I 0 W/m 9,0 C 10,3 C 2,8 km/h (1 Bft)
07.11.2015 01:00 23,7 C 10,9 C 54 % 92 % 1024,7 hPa 0,0 l/m 1,6 km/h (1 Bft) S 0,00 h 0,0 UV-I 0 W/m 9,6 C 10,8 C 4,6 km/h (1 Bft)
07.11.2015 02:00 23,6 C 11,3 C 54 % 93 % 1024,6 hPa 0,6 l/m 1,7 km/h (1 Bft) S 0,00 h 0,0 UV-I 0 W/m 10,1 C 11,3 C 6,2 km/h (2 Bft)
07.11.2015 03:00 23,5 C 11,1 C 54 % 95 % 1024,3 hPa 1,6 l/m 1,1 km/h (0 Bft) S 0,00 h 0,0 UV-I 0 W/m 10,3 C 11,1 C 3,8 km/h (1 Bft)
07.11.2015 04:00 23,5 C 11,2 C 54 % 96 % 1024,2 hPa 0,8 l/m 0,8 km/h (0 Bft) S 0,00 h 0,0 UV-I 0 W/m 10,6 C 11,2 C 2,9 km/h (1 Bft)
07.11.2015 05:00 23,4 C 11,4 C 54 % 96 % 1024,1 hPa 0,0 l/m 1,4 km/h (1 Bft) SW 0,00 h 0,0 UV-I 0 W/m 10,8 C 11,4 C 5,5 km/h (1 Bft)
07.11.2015 06:00 23,4 C 11,6 C 54 % 97 % 1024,3 hPa 0,0 l/m 0,3 km/h (0 Bft) SW 0,00 h 0,0 UV-I 0 W/m 11,1 C 11,6 C 1,4 km/h (1 Bft)
07.11.2015 07:00 23,4 C 11,9 C 54 % 97 % 1025,0 hPa 0,0 l/m 1,2 km/h (1 Bft) SW 0,00 h 0,0 UV-I 9 W/m 11,5 C 11,9 C 4,8 km/h (1 Bft)
07.11.2015 08:00 23,4 C 12,2 C 55 % 97 % 1025,7 hPa 0,2 l/m 0,4 km/h (0 Bft) SW 0,00 h 0,0 UV-I 13 W/m 11,8 C 12,2 C 2,3 km/h (1 Bft)
07.11.2015 09:00 23,4 C 12,5 C 55 % 97 % 1026,0 hPa 0,0 l/m 0,2 km/h (0 Bft) S-SW 0,00 h 0,0 UV-I 21 W/m 12,0 C 12,5 C 1,4 km/h (1 Bft)
07.11.2015 10:00 23,4 C 13,0 C 55 % 98 % 1025,9 hPa 0,0 l/m 0,3 km/h (0 Bft) SW 0,00 h 0,5 UV-I 63 W/m 12,7 C 13,0 C 1,6 km/h (1 Bft)
07.11.2015 11:00 23,6 C 13,8 C 56 % 97 % 1025,8 hPa 0,0 l/m 1,2 km/h (1 Bft) W-SW 0,38 h 0,8 UV-I 139 W/m 13,4 C 13,8 C 4,1 km/h (1 Bft)
07.11.2015 12:00 23,9 C 14,2 C 56 % 97 % 1025,5 hPa 0,0 l/m 0,9 km/h (0 Bft) SW 0,30 h 0,7 UV-I 123 W/m 13,7 C 14,2 C 3,9 km/h (1 Bft)
07.11.2015 13:00 24,0 C 14,1 C 56 % 97 % 1025,6 hPa 0,0 l/m 0,3 km/h (0 Bft) SW 0,00 h 0,5 UV-I 52 W/m 13,7 C 14,1 C 1,7 km/h (1 Bft)
07.11.2015 14:00 23,9 C 14,1 C 56 % 97 % 1025,8 hPa 0,0 l/m 0,0 km/h (0 Bft) S-SO 0,00 h 0,0 UV-I 34 W/m 13,7 C 14,1 C 0,3 km/h (0 Bft)
07.11.2015 15:00 24,1 C 14,3 C 57 % 97 % 1025,7 hPa 0,0 l/m 0,1 km/h (0 Bft) S-SO 0,00 h 0,0 UV-I 21 W/m 13,8 C 14,3 C 0,4 km/h (0 Bft)
07.11.2015 16:00 24,3 C 14,3 C 57 % 97 % 1025,8 hPa 0,0 l/m 0,0 km/h (0 Bft) N 0,00 h 0,0 UV-I 8 W/m 13,8 C 14,3 C 0,2 km/h (0 Bft)
07.11.2015 17:00 24,1 C 14,2 C 56 % 97 % 1026,0 hPa 0,0 l/m 0,6 km/h (0 Bft) S 0,00 h 0,0 UV-I 0 W/m 13,7 C 14,2 C 2,5 km/h (1 Bft)
07.11.2015 18:00 24,0 C 14,2 C 57 % 97 % 1026,2 hPa 0,0 l/m 0,1 km/h (0 Bft) S 0,00 h 0,0 UV-I 0 W/m 13,7 C 14,2 C 1,0 km/h (0 Bft)
07.11.2015 19:00 24,4 C 14,1 C 60 % 97 % 1026,0 hPa 0,0 l/m 1,9 km/h (1 Bft) S 0,00 h 0,0 UV-I 0 W/m 13,7 C 14,1 C 5,9 km/h (2 Bft)
07.11.2015 20:00 24,4 C 14,1 C 59 % 97 % 1026,0 hPa 0,0 l/m 0,7 km/h (0 Bft) S 0,00 h 0,0 UV-I 0 W/m 13,6 C 14,1 C 2,6 km/h (1 Bft)
07.11.2015 21:00 24,5 C 14,2 C 59 % 96 % 1026,0 hPa 0,0 l/m 1,5 km/h (1 Bft) S 0,00 h 0,0 UV-I 0 W/m 13,6 C 14,2 C 4,1 km/h (1 Bft)
07.11.2015 22:00 24,6 C 14,2 C 59 % 96 % 1026,1 hPa 0,0 l/m 3,3 km/h (1 Bft) S 0,00 h 0,0 UV-I 0 W/m 13,6 C 14,2 C 8,8 km/h (2 Bft)
07.11.2015 23:00 24,2 C 14,0 C 59 % 96 % 1026,1 hPa 0,0 l/m 2,9 km/h (1 Bft) S 0,00 h 0,0 UV-I 0 W/m 13,4 C 14,0 C 7,6 km/h (2 Bft)
08.11.2015 00:00 23,9 C 13,8 C 59 % 96 % 1026,1 hPa 0,0 l/m 0,9 km/h (0 Bft) S-SW 0,00 h 0,0 UV-I 0 W/m 13,2 C 13,8 C 3,7 km/h (1 Bft)
08.11.2015 01:00 23,8 C 13,8 C 59 % 96 % 1026,2 hPa 0,0 l/m 0,6 km/h (0 Bft) SW 0,00 h 0,0 UV-I 0 W/m 13,2 C 13,8 C 2,4 km/h (1 Bft)
08.11.2015 02:00 23,7 C 13,6 C 59 % 96 % 1026,7 hPa 0,0 l/m 0,5 km/h (0 Bft) SW 0,00 h 0,0 UV-I 0 W/m 13,0 C 13,6 C 2,0 km/h (1 Bft)
08.11.2015 03:00 23,7 C 13,1 C 59 % 96 % 1026,4 hPa 0,0 l/m 0,9 km/h (0 Bft) S 0,00 h 0,0 UV-I 0 W/m 12,5 C 13,1 C 3,2 km/h (1 Bft)
08.11.2015 04:00 23,6 C 13,2 C 59 % 97 % 1026,6 hPa 0,0 l/m 0,8 km/h (0 Bft) S 0,00 h 0,0 UV-I 0 W/m 12,8 C 13,2 C 3,2 km/h (1 Bft)
08.11.2015 05:00 23,6 C 13,3 C 59 % 97 % 1027,0 hPa 0,0 l/m 2,0 km/h (1 Bft) SW 0,00 h 0,0 UV-I 0 W/m 12,8 C 13,3 C 6,3 km/h (2 Bft)
08.11.2015 06:00 23,6 C 13,0 C 59 % 96 % 1027,8 hPa 0,0 l/m 0,2 km/h (0 Bft) W-SW 0,00 h 0,0 UV-I 0 W/m 12,4 C 13,0 C 0,9 km/h (0 Bft)
08.11.2015 07:00 23,6 C 11,8 C 59 % 95 % 1028,8 hPa 0,0 l/m 0,0 km/h (0 Bft) N 0,00 h 0,0 UV-I 18 W/m 11,0 C 11,8 C 0,0 km/h (0 Bft)
08.11.2015 08:00 23,6 C 12,5 C 59 % 94 % 1029,4 hPa 0,2 l/m 0,0 km/h (0 Bft) N 0,28 h 0,5 UV-I 120 W/m 11,7 C 12,5 C 0,0 km/h (0 Bft)
08.11.2015 09:00 23,7 C 14,6 C 58 % 88 % 1029,6 hPa 0,0 l/m 1,0 km/h (0 Bft) S-SW 0,90 h 0,8 UV-I 238 W/m 12,7 C 14,6 C 3,3 km/h (1 Bft)
08.11.2015 10:00 24,0 C 15,0 C 57 % 84 % 1029,6 hPa 0,0 l/m 2,3 km/h (1 Bft) W-SW 0,55 h 1,1 UV-I 222 W/m 12,3 C 14,9 C 5,4 km/h (1 Bft)
08.11.2015 11:00 23,7 C 15,8 C 55 % 79 % 1029,7 hPa 0,0 l/m 2,7 km/h (1 Bft) W-SW 0,97 h 1,4 UV-I 386 W/m 12,2 C 15,7 C 6,5 km/h (2 Bft)
08.11.2015 12:00 23,5 C 16,0 C 55 % 75 % 1029,2 hPa 0,0 l/m 2,8 km/h (1 Bft) S 1,00 h 1,4 UV-I 340 W/m 11,6 C 16,0 C 7,3 km/h (2 Bft)
08.11.2015 13:00 23,4 C 16,6 C 54 % 67 % 1028,5 hPa 0,0 l/m 1,4 km/h (1 Bft) S 1,00 h 1,2 UV-I 347 W/m 10,5 C 16,6 C 4,0 km/h (1 Bft)
08.11.2015 14:00 23,4 C 16,2 C 52 % 69 % 1027,9 hPa 0,0 l/m 1,9 km/h (1 Bft) S 0,83 h 0,7 UV-I 209 W/m 10,6 C 16,2 C 5,3 km/h (1 Bft)
08.11.2015 15:00 23,0 C 15,6 C 50 % 72 % 1027,4 hPa 0,0 l/m 0,8 km/h (0 Bft) S 0,08 h 0,5 UV-I 90 W/m 10,5 C 15,5 C 2,0 km/h (1 Bft)
08.11.2015 16:00 23,2 C 14,5 C 52 % 77 % 1027,0 hPa 0,0 l/m 0,0 km/h (0 Bft) N 0,00 h 0,0 UV-I 15 W/m 10,4 C 14,5 C 0,0 km/h (0 Bft)
08.11.2015 17:00 23,7 C 12,5 C 55 % 84 % 1026,8 hPa 0,0 l/m 0,0 km/h (0 Bft) N 0,00 h 0,0 UV-I 0 W/m 10,0 C 12,5 C 0,0 km/h (0 Bft)
08.11.2015 18:00 24,2 C 10,9 C 57 % 89 % 1026,7 hPa 0,0 l/m 0,0 km/h (0 Bft) N 0,00 h 0,0 UV-I 0 W/m 9,1 C 10,9 C 0,0 km/h (0 Bft)
08.11.2015 19:00 24,3 C 9,6 C 56 % 90 % 1026,4 hPa 0,0 l/m 0,0 km/h (0 Bft) N 0,00 h 0,0 UV-I 0 W/m 7,9 C 9,6 C 0,0 km/h (0 Bft)
08.11.2015 20:00 24,4 C 8,5 C 57 % 91 % 1025,9 hPa 0,0 l/m 0,0 km/h (0 Bft) N 0,00 h 0,0 UV-I 0 W/m 7,1 C 8,5 C 0,0 km/h (0 Bft)
08.11.2015 21:00 24,5 C 7,6 C 57 % 92 % 1025,3 hPa 0,0 l/m 0,0 km/h (0 Bft) N 0,00 h 0,0 UV-I 0 W/m 6,3 C 7,6 C 0,0 km/h (0 Bft)
08.11.2015 22:00 24,4 C 7,1 C 57 % 93 % 1025,0 hPa 0,0 l/m 0,0 km/h (0 Bft) N 0,00 h 0,0 UV-I 0 W/m 6,0 C 7,1 C 0,0 km/h (0 Bft)
08.11.2015 23:00 24,4 C 7,8 C 58 % 95 % 1024,5 hPa 0,0 l/m 0,0 km/h (0 Bft) N 0,00 h 0,0 UV-I 0 W/m 7,1 C 7,8 C 0,0 km/h (0 Bft)
Min-Datum _ 03.11.15 03.11.15 03.11.15 03.11.15 03.11.15 - 02.11.15 - - - - 03.11.15 03.11.15 02.11.15
_ Min-Zeit 15:50 06:56 15:22 14:45 16:27 - 00:00 - - - - 06:56 06:56 00:00
Minimum _ 21,3 C -4,0 C 36 % 54 % 1021,9 hPa - 0,0 km/h (0 Bft) - - - - -5,1 C -4,0 C 0,0 km/h (0 Bft)
Max-Datum _ 04.11.15 05.11.15 07.11.15 07.11.15 02.11.15 07.11.15 02.11.15 - 02.11.15 02.11.15 04.11.15 07.11.15 05.11.15 02.11.15
_ Max-Zeit 18:29 13:24 18:59 10:17 00:00 03:01 14:14 - 14:38 12:34 10:42 12:24 13:24 14:23
Maximum _ 24,7 C 18,8 C 60 % 98 % 1032,2 hPa 1,6 l/m 12,9 km/h
O-NO (3 Bft)
- 0,03 h 1,7 UV-I 559 W/m 13,9 C 18,8 C 20,9 km/h
O-NO (4 Bft)
Durchschnitt _ 23,7 C 7,8 C 52 % 86 % 1025,5 hPa #3,4 l/m 0,8 km/h (0 Bft) O-NO #29:07 h 0,9 UV-I 161 W/m 5,4 C 7,7 C 2,0 km/h (1 Bft)